Time;durP1;ratioP1;P1;durP2;ratioP2;P2;SDS_P1;SDS_P2;PMS_P1;PMS_P2;Temp;Humidity;BMP_temperature;BMP_pressure;BME280_temperature;BME280_humidity;BME280_pressure;Samples;Min_cycle;Max_cycle;Signal;HPM_P1;HPM_P2
2024/01/05 00:00:49;;;;;;;3.10;2.00;;;;;;;;;;5036457;28;20337;-77
2024/01/05 00:03:14;;;;;;;2.85;1.70;;;;;;;;;;5036943;28;20021;-77
2024/01/05 00:05:39;;;;;;;2.83;1.92;;;;;;;;;;5037659;28;20025;-76
2024/01/05 00:08:05;;;;;;;2.63;1.77;;;;;;;;;;5035769;28;20072;-79
2024/01/05 00:10:30;;;;;;;2.67;1.70;;;;;;;;;;5037767;28;20576;-78
2024/01/05 00:12:56;;;;;;;3.22;1.88;;;;;;;;;;5036016;28;20061;-79
2024/01/05 00:15:21;;;;;;;2.63;1.90;;;;;;;;;;5038397;28;20025;-75
2024/01/05 00:17:46;;;;;;;2.70;1.90;;;;;;;;;;5037307;28;20507;-78
2024/01/05 00:20:12;;;;;;;5.40;2.00;;;;;;;;;;5038413;28;20725;-78
2024/01/05 00:22:37;;;;;;;3.67;2.30;;;;;;;;;;5037934;28;20090;-75
2024/01/05 00:25:03;;;;;;;3.10;2.10;;;;;;;;;;5038475;28;20052;-77
2024/01/05 00:27:28;;;;;;;3.50;2.30;;;;;;;;;;5037026;28;20025;-79
2024/01/05 00:29:54;;;;;;;3.63;2.23;;;;;;;;;;5038194;28;20034;-78
2024/01/05 00:32:19;;;;;;;2.75;2.10;;;;;;;;;;5037669;28;20277;-77
2024/01/05 00:34:44;;;;;;;3.28;2.30;;;;;;;;;;5036466;28;20028;-76
2024/01/05 00:37:10;;;;;;;3.17;2.20;;;;;;;;;;5037945;28;20505;-78
2024/01/05 00:39:35;;;;;;;4.10;2.40;;;;;;;;;;5037088;28;20266;-77
2024/01/05 00:42:06;;;;;;;4.07;2.38;;;;;;;;;;5036663;28;20052;-78
2024/01/05 00:44:31;;;;;;;3.60;2.28;;;;;;;;;;5036408;28;20029;-77
2024/01/05 00:46:57;;;;;;;3.33;2.05;;;;;;;;;;5038090;28;20031;-78
2024/01/05 00:49:22;;;;;;;3.10;2.15;;;;;;;;;;5037565;28;20022;-77
2024/01/05 00:51:47;;;;;;;2.70;2.20;;;;;;;;;;5036182;28;20391;-78
2024/01/05 00:54:13;;;;;;;3.40;2.25;;;;;;;;;;5036442;28;20369;-77
2024/01/05 00:56:39;;;;;;;3.83;2.60;;;;;;;;;;5036442;28;20048;-78
2024/01/05 00:59:05;;;;;;;4.10;2.50;;;;;;;;;;5036391;28;20025;-78
2024/01/05 01:01:31;;;;;;;4.50;2.38;;;;;;;;;;5035883;28;20144;-78
2024/01/05 01:03:56;;;;;;;2.50;1.90;;;;;;;;;;5034044;28;20068;-78
2024/01/05 01:06:21;;;;;;;3.63;2.40;;;;;;;;;;5035854;28;20496;-78
2024/01/05 01:08:46;;;;;;;3.23;2.27;;;;;;;;;;5035636;28;20772;-78
2024/01/05 01:11:15;;;;;;;2.97;1.92;;;;;;;;;;5035463;28;20368;-77
2024/01/05 01:13:41;;;;;;;3.33;1.98;;;;;;;;;;5035243;28;20025;-77
2024/01/05 01:16:06;;;;;;;3.10;2.20;;;;;;;;;;5035089;28;20435;-76
2024/01/05 01:18:31;;;;;;;4.10;2.22;;;;;;;;;;5035119;28;20021;-76
2024/01/05 01:20:57;;;;;;;3.40;2.40;;;;;;;;;;5033904;28;20369;-76
2024/01/05 01:23:22;;;;;;;3.60;2.60;;;;;;;;;;5033730;28;20404;-75
2024/01/05 01:25:47;;;;;;;4.15;2.30;;;;;;;;;;5035174;28;20599;-79
2024/01/05 01:28:12;;;;;;;3.92;2.55;;;;;;;;;;5034826;28;20053;-75
2024/01/05 01:30:38;;;;;;;3.67;2.45;;;;;;;;;;5035675;28;20079;-77
2024/01/05 01:33:03;;;;;;;3.33;2.57;;;;;;;;;;5035578;28;20022;-74
2024/01/05 01:35:28;;;;;;;4.40;2.60;;;;;;;;;;5034935;28;20265;-77
2024/01/05 01:37:53;;;;;;;5.47;2.30;;;;;;;;;;5034993;28;20017;-76
2024/01/05 01:40:19;;;;;;;4.00;2.35;;;;;;;;;;5034874;28;20298;-78
2024/01/05 01:42:45;;;;;;;4.22;2.50;;;;;;;;;;5034879;28;20033;-75
2024/01/05 01:45:11;;;;;;;3.65;2.40;;;;;;;;;;5034767;28;20480;-77
2024/01/05 01:47:36;;;;;;;3.53;2.42;;;;;;;;;;5033413;28;20030;-78
2024/01/05 01:50:02;;;;;;;3.90;2.20;;;;;;;;;;5033043;28;20025;-75
2024/01/05 01:52:27;;;;;;;3.30;2.30;;;;;;;;;;5034355;28;20025;-76
2024/01/05 01:54:52;;;;;;;2.58;2.03;;;;;;;;;;5032950;28;20498;-78
2024/01/05 01:57:18;;;;;;;3.33;2.25;;;;;;;;;;5034668;28;20075;-76
2024/01/05 01:59:44;;;;;;;4.43;2.30;;;;;;;;;;5033674;28;20108;-75
2024/01/05 02:02:11;;;;;;;3.65;2.22;;;;;;;;;;5034825;28;20024;-76
2024/01/05 02:04:38;;;;;;;4.15;2.20;;;;;;;;;;5035326;28;20506;-77
2024/01/05 02:07:04;;;;;;;3.38;2.40;;;;;;;;;;5034679;28;20049;-77
2024/01/05 02:09:30;;;;;;;3.13;2.22;;;;;;;;;;5033927;28;20503;-78
2024/01/05 02:11:55;;;;;;;3.65;2.45;;;;;;;;;;5036063;28;20041;-76
2024/01/05 02:14:20;;;;;;;2.88;2.33;;;;;;;;;;5035697;28;20116;-78
2024/01/05 02:16:45;;;;;;;3.95;2.47;;;;;;;;;;5035053;28;20029;-77
2024/01/05 02:19:11;;;;;;;3.83;2.40;;;;;;;;;;5035672;28;20036;-78
2024/01/05 02:21:42;;;;;;;3.00;2.30;;;;;;;;;;5034993;28;20274;-77
2024/01/05 02:24:07;;;;;;;3.35;2.20;;;;;;;;;;5035153;28;20025;-77
2024/01/05 02:26:32;;;;;;;2.83;2.15;;;;;;;;;;5035499;28;20494;-74
2024/01/05 02:28:57;;;;;;;2.78;1.92;;;;;;;;;;5035856;28;20028;-78
2024/01/05 02:31:23;;;;;;;3.42;2.20;;;;;;;;;;5035301;28;20436;-78
2024/01/05 02:33:48;;;;;;;2.70;1.88;;;;;;;;;;5035058;28;20036;-77
2024/01/05 02:36:13;;;;;;;6.07;2.13;;;;;;;;;;5039175;28;20376;-77
2024/01/05 02:38:38;;;;;;;2.50;1.92;;;;;;;;;;5039460;28;20033;-77
2024/01/05 02:41:06;;;;;;;2.97;2.00;;;;;;;;;;5040971;28;20021;-77
2024/01/05 02:43:31;;;;;;;4.82;2.60;;;;;;;;;;5038043;28;20263;-79
2024/01/05 02:45:56;;;;;;;3.07;2.20;;;;;;;;;;5033955;28;20399;-74
2024/01/05 02:48:22;;;;;;;3.15;2.20;;;;;;;;;;5032675;28;20637;-78
2024/01/05 02:50:47;;;;;;;3.05;2.00;;;;;;;;;;5034013;28;20368;-74
2024/01/05 02:53:12;;;;;;;3.03;2.20;;;;;;;;;;5034090;28;20043;-77
2024/01/05 02:55:37;;;;;;;3.37;2.20;;;;;;;;;;5033930;28;20342;-76
2024/01/05 02:58:03;;;;;;;2.50;1.70;;;;;;;;;;5034937;28;20309;-78
2024/01/05 03:00:28;;;;;;;2.45;1.98;;;;;;;;;;5034118;28;20251;-75
2024/01/05 03:02:53;;;;;;;3.08;1.90;;;;;;;;;;5033424;28;20116;-77
2024/01/05 03:05:19;;;;;;;2.23;1.80;;;;;;;;;;5033823;28;20395;-76
2024/01/05 03:07:45;;;;;;;3.28;2.20;;;;;;;;;;5033462;28;20683;-78
2024/01/05 03:10:11;;;;;;;4.10;2.50;;;;;;;;;;5033667;28;20033;-76
2024/01/05 03:12:36;;;;;;;3.60;2.17;;;;;;;;;;5033887;28;20025;-78
2024/01/05 03:15:01;;;;;;;3.40;2.20;;;;;;;;;;5033982;28;20030;-78
2024/01/05 03:17:26;;;;;;;3.20;2.17;;;;;;;;;;5033904;28;20293;-76
2024/01/05 03:19:51;;;;;;;4.23;2.30;;;;;;;;;;5034031;28;20263;-78
2024/01/05 03:22:17;;;;;;;3.43;2.00;;;;;;;;;;5033380;28;20422;-78
2024/01/05 03:24:43;;;;;;;2.93;2.13;;;;;;;;;;5032939;28;20345;-77
2024/01/05 03:27:13;;;;;;;3.85;2.40;;;;;;;;;;5033533;28;20621;-75
2024/01/05 03:29:38;;;;;;;3.83;2.10;;;;;;;;;;5032639;28;20098;-77
2024/01/05 03:32:04;;;;;;;3.40;2.17;;;;;;;;;;5033635;28;20539;-74
2024/01/05 03:34:30;;;;;;;3.47;2.63;;;;;;;;;;5033150;28;20475;-74
2024/01/05 03:36:56;;;;;;;3.90;2.42;;;;;;;;;;5031717;28;20021;-75
2024/01/05 03:39:21;;;;;;;3.63;2.67;;;;;;;;;;5033026;28;20125;-76
2024/01/05 03:41:46;;;;;;;3.35;2.40;;;;;;;;;;5033221;28;20464;-77
2024/01/05 03:44:11;;;;;;;3.72;2.22;;;;;;;;;;5031788;28;20535;-77
2024/01/05 03:46:37;;;;;;;3.20;2.25;;;;;;;;;;5031774;28;20083;-77
2024/01/05 03:49:02;;;;;;;3.50;2.10;;;;;;;;;;5033768;28;20031;-77
2024/01/05 03:51:27;;;;;;;4.45;2.15;;;;;;;;;;5031556;28;20286;-73
2024/01/05 03:53:53;;;;;;;3.72;2.25;;;;;;;;;;5032573;28;20017;-74
2024/01/05 03:56:18;;;;;;;3.38;2.30;;;;;;;;;;5033206;28;20108;-77
2024/01/05 03:58:43;;;;;;;3.53;2.50;;;;;;;;;;5032624;28;20033;-74
2024/01/05 04:01:09;;;;;;;3.42;2.30;;;;;;;;;;5032772;28;20026;-74
2024/01/05 04:03:34;;;;;;;3.50;2.47;;;;;;;;;;5032698;28;20030;-77
2024/01/05 04:05:59;;;;;;;3.43;2.37;;;;;;;;;;5032668;28;20037;-76
2024/01/05 04:08:24;;;;;;;3.53;2.23;;;;;;;;;;5033021;28;20271;-77
2024/01/05 04:10:50;;;;;;;3.93;2.43;;;;;;;;;;5031316;28;20281;-77
2024/01/05 04:13:15;;;;;;;7.40;2.40;;;;;;;;;;5033628;28;20259;-75
2024/01/05 04:15:40;;;;;;;3.73;2.20;;;;;;;;;;5032808;28;20029;-77
2024/01/05 04:18:06;;;;;;;3.38;2.33;;;;;;;;;;5031297;28;20263;-77
2024/01/05 04:20:32;;;;;;;3.25;2.45;;;;;;;;;;5037213;28;20467;-77
2024/01/05 04:22:58;;;;;;;2.88;2.03;;;;;;;;;;5035461;28;20021;-77
2024/01/05 04:25:23;;;;;;;2.97;2.20;;;;;;;;;;5037269;28;20449;-74
2024/01/05 04:27:48;;;;;;;4.00;2.42;;;;;;;;;;5036542;28;20368;-74
2024/01/05 04:30:15;;;;;;;3.40;2.42;;;;;;;;;;5036127;28;20033;-76
2024/01/05 04:32:41;;;;;;;3.88;2.42;;;;;;;;;;5036745;28;20029;-78
2024/01/05 04:35:06;;;;;;;4.03;2.40;;;;;;;;;;5036874;28;20480;-78
2024/01/05 04:37:32;;;;;;;3.80;2.53;;;;;;;;;;5036830;28;20373;-78
2024/01/05 04:39:57;;;;;;;3.60;2.42;;;;;;;;;;5036935;28;20039;-75
2024/01/05 04:42:22;;;;;;;4.07;2.75;;;;;;;;;;5036889;28;20040;-78
2024/01/05 04:44:49;;;;;;;3.95;2.70;;;;;;;;;;5036731;28;20123;-78
2024/01/05 04:47:14;;;;;;;4.70;2.90;;;;;;;;;;5036559;28;20021;-77
2024/01/05 04:49:39;;;;;;;4.03;2.30;;;;;;;;;;5036488;28;20116;-77
2024/01/05 04:52:05;;;;;;;5.47;2.77;;;;;;;;;;5035883;28;20107;-77
2024/01/05 04:54:30;;;;;;;3.35;2.10;;;;;;;;;;5035747;28;20301;-76
2024/01/05 04:56:55;;;;;;;4.68;2.60;;;;;;;;;;5034640;28;20028;-76
2024/01/05 04:59:22;;;;;;;3.22;2.10;;;;;;;;;;5035748;28;20026;-77
2024/01/05 05:01:47;;;;;;;4.75;2.47;;;;;;;;;;5035379;28;20022;-77
2024/01/05 05:04:17;;;;;;;4.15;2.55;;;;;;;;;;5035427;28;20023;-77
2024/01/05 05:06:43;;;;;;;3.05;2.10;;;;;;;;;;5034447;28;20104;-77
2024/01/05 05:09:12;;;;;;;3.85;2.15;;;;;;;;;;5033751;28;20063;-78
2024/01/05 05:11:39;;;;;;;2.72;2.17;;;;;;;;;;5033535;28;20017;-75
2024/01/05 05:14:04;;;;;;;3.58;2.33;;;;;;;;;;5034958;28;20025;-77
2024/01/05 05:16:29;;;;;;;5.30;2.40;;;;;;;;;;5035125;28;20071;-74
2024/01/05 05:18:54;;;;;;;4.20;2.47;;;;;;;;;;5035149;28;20263;-77
2024/01/05 05:21:19;;;;;;;3.80;2.30;;;;;;;;;;5033628;28;20393;-77
2024/01/05 05:23:45;;;;;;;4.55;2.53;;;;;;;;;;5035272;28;20417;-76
2024/01/05 05:26:10;;;;;;;5.13;2.88;;;;;;;;;;5035389;28;20388;-76
2024/01/05 05:28:35;;;;;;;4.27;1.87;;;;;;;;;;5034425;28;20460;-76
2024/01/05 05:31:00;;;;;;;4.97;2.53;;;;;;;;;;5035697;28;20682;-77
2024/01/05 05:33:25;;;;;;;5.03;2.83;;;;;;;;;;5035305;28;20699;-76
2024/01/05 05:35:51;;;;;;;5.82;2.50;;;;;;;;;;5037112;28;20031;-78
2024/01/05 05:38:16;;;;;;;5.07;2.63;;;;;;;;;;5035225;28;20105;-77
2024/01/05 05:40:41;;;;;;;3.60;2.25;;;;;;;;;;5034285;28;20476;-77
2024/01/05 05:43:06;;;;;;;4.95;2.30;;;;;;;;;;5034876;28;20450;-73
2024/01/05 05:45:32;;;;;;;5.50;2.60;;;;;;;;;;5037340;28;20033;-78
2024/01/05 05:47:58;;;;;;;6.65;2.67;;;;;;;;;;5036680;28;20254;-76
2024/01/05 05:50:23;;;;;;;6.28;2.67;;;;;;;;;;5036432;28;20082;-78
2024/01/05 05:52:51;;;;;;;3.93;2.27;;;;;;;;;;5037183;28;20112;-79
2024/01/05 05:55:16;;;;;;;5.18;2.33;;;;;;;;;;5037494;28;20797;-78
2024/01/05 05:57:41;;;;;;;2.70;2.30;;;;;;;;;;5035695;28;20107;-78
2024/01/05 06:00:08;;;;;;;3.28;2.53;;;;;;;;;;5037734;28;20060;-79
2024/01/05 06:02:33;;;;;;;3.88;2.50;;;;;;;;;;5038030;28;20121;-79
2024/01/05 06:04:58;;;;;;;6.47;2.80;;;;;;;;;;5037308;28;20064;-79
2024/01/05 06:07:24;;;;;;;6.22;3.05;;;;;;;;;;5036793;28;20033;-78
2024/01/05 06:09:50;;;;;;;5.75;2.72;;;;;;;;;;5036826;28;20071;-78
2024/01/05 06:12:15;;;;;;;4.70;2.67;;;;;;;;;;5036551;28;20089;-78
2024/01/05 06:14:40;;;;;;;6.75;3.22;;;;;;;;;;5035155;28;20061;-78
2024/01/05 06:17:05;;;;;;;7.60;3.47;;;;;;;;;;5036305;28;20021;-78
2024/01/05 06:19:31;;;;;;;5.97;3.20;;;;;;;;;;5035867;28;20254;-78
2024/01/05 06:21:57;;;;;;;6.13;3.37;;;;;;;;;;5035407;28;20038;-78
2024/01/05 06:24:22;;;;;;;6.03;3.00;;;;;;;;;;5035290;28;20290;-79
2024/01/05 06:26:48;;;;;;;6.40;3.20;;;;;;;;;;5035503;28;20483;-79
2024/01/05 06:29:13;;;;;;;7.00;3.45;;;;;;;;;;5054283;28;20016;-78
2024/01/05 06:31:38;;;;;;;9.00;4.53;;;;;;;;;;5057193;28;20025;-78
2024/01/05 06:34:03;;;;;;;14.82;6.75;;;;;;;;;;5056394;28;20044;-79
2024/01/05 06:36:28;;;;;;;12.40;6.77;;;;;;;;;;5036861;28;20037;-78
2024/01/05 06:38:54;;;;;;;13.93;6.30;;;;;;;;;;5035849;28;20273;-77
2024/01/05 06:41:19;;;;;;;11.32;3.88;;;;;;;;;;5033928;28;20021;-78
2024/01/05 06:43:44;;;;;;;5.40;3.30;;;;;;;;;;5035020;28;20041;-78
2024/01/05 06:46:09;;;;;;;7.43;3.53;;;;;;;;;;5035404;28;20259;-78
2024/01/05 06:48:35;;;;;;;6.85;3.53;;;;;;;;;;5034644;28;20107;-77
2024/01/05 06:51:00;;;;;;;10.40;3.50;;;;;;;;;;5039298;28;20091;-79
2024/01/05 06:53:25;;;;;;;7.50;3.72;;;;;;;;;;5034351;28;20059;-78
2024/01/05 06:55:50;;;;;;;5.60;3.10;;;;;;;;;;5036551;28;20044;-77
2024/01/05 06:58:16;;;;;;;6.05;3.05;;;;;;;;;;5047323;28;20271;-76
2024/01/05 07:00:42;;;;;;;5.78;3.30;;;;;;;;;;5047255;28;20094;-76
2024/01/05 07:03:07;;;;;;;11.77;3.63;;;;;;;;;;5048181;28;20025;-77
2024/01/05 07:05:32;;;;;;;8.43;3.28;;;;;;;;;;5050991;28;20041;-78
2024/01/05 07:07:58;;;;;;;6.93;3.37;;;;;;;;;;5049378;28;20069;-78
2024/01/05 07:10:23;;;;;;;9.90;3.83;;;;;;;;;;5051121;28;20329;-78
2024/01/05 07:12:48;;;;;;;7.90;4.10;;;;;;;;;;5049210;28;20278;-78
2024/01/05 07:15:14;;;;;;;6.88;3.80;;;;;;;;;;5049648;28;20026;-78
2024/01/05 07:17:39;;;;;;;9.45;3.90;;;;;;;;;;5037987;28;20082;-78
2024/01/05 07:20:04;;;;;;;11.03;3.80;;;;;;;;;;5032446;28;20033;-78
2024/01/05 07:22:30;;;;;;;8.57;3.35;;;;;;;;;;5034231;28;20259;-79
2024/01/05 07:24:55;;;;;;;12.90;3.97;;;;;;;;;;5038760;28;20025;-78
2024/01/05 07:27:20;;;;;;;7.50;3.92;;;;;;;;;;5037369;28;20560;-78
2024/01/05 07:29:45;;;;;;;8.70;3.70;;;;;;;;;;5036629;28;20061;-78
2024/01/05 07:32:11;;;;;;;7.93;3.77;;;;;;;;;;5036075;28;20029;-78
2024/01/05 07:34:37;;;;;;;9.32;3.78;;;;;;;;;;5037782;28;20349;-78
2024/01/05 07:37:02;;;;;;;8.35;3.72;;;;;;;;;;5036662;28;20025;-81
2024/01/05 07:39:27;;;;;;;15.70;4.03;;;;;;;;;;5034928;28;20049;-79
2024/01/05 07:41:52;;;;;;;8.88;3.95;;;;;;;;;;5036847;28;20399;-78
2024/01/05 07:44:18;;;;;;;9.98;3.92;;;;;;;;;;5035069;28;20360;-78
2024/01/05 07:46:43;;;;;;;12.88;4.18;;;;;;;;;;5033515;28;20028;-77
2024/01/05 07:49:09;;;;;;;10.93;3.50;;;;;;;;;;5035886;28;20053;-79
2024/01/05 07:51:35;;;;;;;8.38;3.53;;;;;;;;;;5033777;28;20025;-77
2024/01/05 07:54:00;;;;;;;7.35;2.92;;;;;;;;;;5038676;28;20026;-79
2024/01/05 07:56:25;;;;;;;6.78;2.92;;;;;;;;;;5038409;28;20408;-79
2024/01/05 07:58:50;;;;;;;5.97;3.03;;;;;;;;;;5038596;28;20445;-78
2024/01/05 08:01:17;;;;;;;5.80;3.00;;;;;;;;;;5040117;28;20727;-78
2024/01/05 08:03:44;;;;;;;9.45;3.22;;;;;;;;;;5037196;28;20295;-78
2024/01/05 08:06:16;;;;;;;5.82;3.05;;;;;;;;;;5036932;28;20025;-77
2024/01/05 08:08:46;;;;;;;8.25;3.28;;;;;;;;;;5038565;28;20033;-79
2024/01/05 08:11:12;;;;;;;7.70;3.35;;;;;;;;;;5039784;28;20117;-79
2024/01/05 08:13:37;;;;;;;6.65;3.13;;;;;;;;;;5041584;28;20033;-79
2024/01/05 08:16:03;;;;;;;7.65;3.50;;;;;;;;;;5040773;28;20029;-79
2024/01/05 08:18:28;;;;;;;10.57;3.60;;;;;;;;;;5038941;28;20029;-78
2024/01/05 08:20:54;;;;;;;10.23;3.90;;;;;;;;;;5037601;28;20052;-78
2024/01/05 08:23:19;;;;;;;8.63;3.25;;;;;;;;;;5037428;28;20055;-78
2024/01/05 08:25:44;;;;;;;7.80;4.15;;;;;;;;;;5037498;28;20392;-77
2024/01/05 08:28:09;;;;;;;13.07;4.13;;;;;;;;;;5038761;28;20124;-83
2024/01/05 08:30:35;;;;;;;12.50;3.70;;;;;;;;;;5038074;28;20034;-80
2024/01/05 08:33:00;;;;;;;7.07;3.33;;;;;;;;;;5038490;28;20267;-77
2024/01/05 08:35:26;;;;;;;5.10;3.20;;;;;;;;;;5042343;28;20044;-81
2024/01/05 08:37:51;;;;;;;9.10;3.22;;;;;;;;;;5035762;28;20261;-78
2024/01/05 08:40:17;;;;;;;8.57;3.30;;;;;;;;;;5036293;28;20021;-81
2024/01/05 08:42:42;;;;;;;4.10;2.72;;;;;;;;;;5039915;28;20079;-81
2024/01/05 08:45:08;;;;;;;4.97;3.33;;;;;;;;;;5039796;28;20094;-81
2024/01/05 08:47:33;;;;;;;8.75;3.53;;;;;;;;;;5038940;28;20029;-81
2024/01/05 08:49:58;;;;;;;8.13;3.30;;;;;;;;;;5037861;28;20052;-82
2024/01/05 08:52:23;;;;;;;8.10;3.60;;;;;;;;;;5039126;28;20542;-81
2024/01/05 08:54:49;;;;;;;5.57;2.85;;;;;;;;;;5037416;28;20757;-81
2024/01/05 08:57:14;;;;;;;6.90;3.60;;;;;;;;;;5038470;28;20040;-82
2024/01/05 08:59:39;;;;;;;6.33;3.33;;;;;;;;;;5039071;28;20254;-81
2024/01/05 09:02:08;;;;;;;8.20;3.47;;;;;;;;;;5037929;28;20255;-82
2024/01/05 09:04:33;;;;;;;10.45;3.13;;;;;;;;;;5038094;28;20061;-82
2024/01/05 09:06:59;;;;;;;4.72;2.90;;;;;;;;;;5039145;28;20454;-82
2024/01/05 09:09:24;;;;;;;8.95;3.03;;;;;;;;;;5038930;28;20028;-82
2024/01/05 09:11:49;;;;;;;4.80;2.20;;;;;;;;;;5037080;28;20086;-82
2024/01/05 09:14:14;;;;;;;5.83;2.57;;;;;;;;;;5038839;28;20282;-83
2024/01/05 09:16:40;;;;;;;5.63;2.57;;;;;;;;;;5038417;28;20246;-82
2024/01/05 09:19:05;;;;;;;5.43;2.53;;;;;;;;;;5037924;28;20299;-83
2024/01/05 09:21:30;;;;;;;4.25;2.22;;;;;;;;;;5036256;28;20266;-82
2024/01/05 09:23:55;;;;;;;6.20;2.70;;;;;;;;;;5037950;28;20022;-82
2024/01/05 09:26:21;;;;;;;4.73;2.60;;;;;;;;;;5037641;28;20491;-81
2024/01/05 09:28:46;;;;;;;6.78;2.20;;;;;;;;;;5036685;28;20761;-82
2024/01/05 09:31:11;;;;;;;3.30;2.13;;;;;;;;;;5038062;28;20026;-81
2024/01/05 09:33:37;;;;;;;4.40;2.13;;;;;;;;;;5038654;28;20263;-80
2024/01/05 09:36:05;;;;;;;5.50;2.05;;;;;;;;;;5037385;28;20049;-82
2024/01/05 09:38:31;;;;;;;5.18;2.10;;;;;;;;;;5038306;28;20029;-81
2024/01/05 09:40:56;;;;;;;3.63;2.03;;;;;;;;;;5037352;28;20118;-81
2024/01/05 09:43:23;;;;;;;4.05;2.30;;;;;;;;;;5038604;28;20037;-82
2024/01/05 09:45:52;;;;;;;4.43;2.10;;;;;;;;;;5037313;28;20049;-83
2024/01/05 09:48:22;;;;;;;6.53;1.90;;;;;;;;;;5036362;28;20026;-82
2024/01/05 09:50:59;;;;;;;3.38;2.00;;;;;;;;;;5036846;28;20021;-82
2024/01/05 09:53:24;;;;;;;4.55;2.08;;;;;;;;;;5037418;28;20025;-81
2024/01/05 09:55:50;;;;;;;3.45;1.90;;;;;;;;;;5037228;28;20124;-81
2024/01/05 09:58:16;;;;;;;5.07;2.25;;;;;;;;;;5035992;28;20040;-83
2024/01/05 10:00:49;;;;;;;5.13;2.30;;;;;;;;;;5035560;28;20033;-82
2024/01/05 10:03:23;;;;;;;3.53;2.00;;;;;;;;;;5036941;28;20022;-82
2024/01/05 10:05:53;;;;;;;4.43;2.10;;;;;;;;;;5037720;28;20017;-81
2024/01/05 10:08:22;;;;;;;4.22;1.90;;;;;;;;;;5035217;28;20025;-81
2024/01/05 10:11:00;;;;;;;4.65;1.88;;;;;;;;;;5036862;28;20025;-82
2024/01/05 10:13:26;;;;;;;5.60;1.90;;;;;;;;;;5035211;28;20025;-82
2024/01/05 10:15:52;;;;;;;3.57;1.87;;;;;;;;;;5058731;28;20044;-81
2024/01/05 10:18:18;;;;;;;6.88;2.05;;;;;;;;;;5059499;28;20245;-82
2024/01/05 10:20:43;;;;;;;4.00;2.28;;;;;;;;;;5054094;28;20030;-82
2024/01/05 10:23:08;;;;;;;4.57;1.80;;;;;;;;;;5038049;28;20128;-83
2024/01/05 10:25:36;;;;;;;5.53;2.00;;;;;;;;;;5038601;28;20334;-82
2024/01/05 10:28:01;;;;;;;4.30;1.80;;;;;;;;;;5038399;28;20397;-81
2024/01/05 10:30:29;;;;;;;2.60;1.65;;;;;;;;;;5037382;28;20021;-81
2024/01/05 10:33:07;;;;;;;3.72;1.60;;;;;;;;;;5036776;28;20018;-79
2024/01/05 10:35:35;;;;;;;3.95;1.50;;;;;;;;;;5037127;28;20076;-78
2024/01/05 10:38:05;;;;;;;2.30;1.17;;;;;;;;;;5038136;28;20025;-79
2024/01/05 10:40:32;;;;;;;3.25;1.60;;;;;;;;;;5039106;28;20070;-78
2024/01/05 10:43:07;;;;;;;3.35;1.55;;;;;;;;;;5035418;28;20393;-77
2024/01/05 10:45:34;;;;;;;4.53;2.00;;;;;;;;;;5034265;28;20049;-78
2024/01/05 10:48:00;;;;;;;4.60;1.80;;;;;;;;;;5033659;28;20028;-78
2024/01/05 10:50:25;;;;;;;4.18;1.92;;;;;;;;;;5034763;28;20105;-78
2024/01/05 10:52:52;;;;;;;4.28;1.98;;;;;;;;;;5033049;28;20484;-79
2024/01/05 10:55:19;;;;;;;5.05;1.92;;;;;;;;;;5033443;28;20559;-80
2024/01/05 10:57:45;;;;;;;4.97;1.90;;;;;;;;;;5034488;28;20174;-78
2024/01/05 11:00:13;;;;;;;4.20;1.52;;;;;;;;;;5035279;28;20079;-78
2024/01/05 11:02:46;;;;;;;6.25;1.85;;;;;;;;;;5034234;28;20125;-77
2024/01/05 11:05:13;;;;;;;4.25;2.17;;;;;;;;;;5034324;28;20025;-77
2024/01/05 11:07:39;;;;;;;4.72;1.83;;;;;;;;;;5035244;28;20037;-77
2024/01/05 11:10:42;;;;;;;4.63;1.70;;;;;;;;;;5034357;28;20484;-78
2024/01/05 11:13:20;;;;;;;2.80;1.75;;;;;;;;;;5033505;28;20088;-78
2024/01/05 11:15:58;;;;;;;5.10;2.00;;;;;;;;;;5032754;28;20045;-77
2024/01/05 11:18:43;;;;;;;5.30;1.95;;;;;;;;;;5034663;28;20040;-80
2024/01/05 11:21:10;;;;;;;;;;;;;;;;;;5038939;28;20160;-77
2024/01/05 11:23:37;;;;;;;6.65;1.85;;;;;;;;;;5033670;28;19916;-77
2024/01/05 11:26:03;;;;;;;5.22;2.10;;;;;;;;;;5033307;28;20079;-77
2024/01/05 11:28:32;;;;;;;3.33;2.00;;;;;;;;;;5035446;28;20037;-76
2024/01/05 11:30:57;;;;;;;6.97;1.40;;;;;;;;;;5037734;28;20068;-77
2024/01/05 11:33:42;;;;;;;5.75;2.17;;;;;;;;;;5037575;28;20424;-77
2024/01/05 11:36:07;;;;;;;5.00;1.90;;;;;;;;;;5036974;28;20025;-77
2024/01/05 11:38:32;;;;;;;5.23;1.63;;;;;;;;;;5038212;28;20048;-77
2024/01/05 11:40:57;;;;;;;5.03;2.50;;;;;;;;;;5036316;28;20341;-77
2024/01/05 11:43:30;;;;;;;4.63;2.20;;;;;;;;;;5037009;28;20079;-75
2024/01/05 11:45:55;;;;;;;2.55;1.60;;;;;;;;;;5037056;28;20506;-77
2024/01/05 11:48:35;;;;;;;4.80;2.20;;;;;;;;;;5035392;28;20030;-77
2024/01/05 11:51:07;;;;;;;6.45;2.25;;;;;;;;;;5036530;28;20112;-76
2024/01/05 11:53:32;;;;;;;8.57;1.83;;;;;;;;;;5036572;28;20056;-76
2024/01/05 11:55:59;;;;;;;6.95;2.28;;;;;;;;;;5036830;28;20403;-76
2024/01/05 11:58:32;;;;;;;5.20;2.17;;;;;;;;;;5037162;28;20030;-76
2024/01/05 12:01:02;;;;;;;5.75;2.38;;;;;;;;;;5035065;28;20017;-76
2024/01/05 12:03:28;;;;;;;6.13;2.67;;;;;;;;;;5037177;28;20113;-76
2024/01/05 12:05:55;;;;;;;4.20;2.33;;;;;;;;;;5035331;28;20057;-77
2024/01/05 12:08:21;;;;;;;4.85;2.58;;;;;;;;;;5036463;28;20452;-77
2024/01/05 12:10:52;;;;;;;3.58;1.98;;;;;;;;;;5035106;28;20029;-77
2024/01/05 12:13:27;;;;;;;4.57;2.63;;;;;;;;;;5035067;28;20024;-77
2024/01/05 12:15:57;;;;;;;6.20;2.45;;;;;;;;;;5035921;28;20392;-76
2024/01/05 12:18:26;;;;;;;3.95;2.30;;;;;;;;;;5036419;28;20082;-76
2024/01/05 12:20:58;;;;;;;3.42;2.17;;;;;;;;;;5036959;28;20021;-78
2024/01/05 12:23:25;;;;;;;4.03;2.25;;;;;;;;;;5037082;28;20495;-77
2024/01/05 12:26:09;;;;;;;6.00;2.33;;;;;;;;;;5036281;28;20032;-76
2024/01/05 12:28:35;;;;;;;;;;;;;;;;;;5032999;28;20022;-78
2024/01/05 12:31:02;;;;;;;5.30;2.42;;;;;;;;;;5033332;28;20382;-76
2024/01/05 12:33:29;;;;;;;3.85;2.22;;;;;;;;;;5033752;28;20034;-77
2024/01/05 12:35:55;;;;;;;5.25;2.72;;;;;;;;;;5033888;28;20017;-77
2024/01/05 12:38:30;;;;;;;7.25;3.00;;;;;;;;;;5033795;28;20112;-77
2024/01/05 12:41:12;;;;;;;5.38;2.58;;;;;;;;;;5032806;28;20026;-77
2024/01/05 12:43:38;;;;;;;7.18;2.65;;;;;;;;;;5034528;28;20029;-77
2024/01/05 12:46:04;;;;;;;5.80;2.50;;;;;;;;;;5035938;28;20475;-77
2024/01/05 12:48:30;;;;;;;4.78;2.05;;;;;;;;;;5035676;28;20032;-77
2024/01/05 12:51:13;;;;;;;7.18;2.25;;;;;;;;;;5034949;28;20030;-77
2024/01/05 12:53:38;;;;;;;3.63;2.10;;;;;;;;;;5034746;28;20029;-77
2024/01/05 12:56:10;;;;;;;5.93;2.00;;;;;;;;;;5034455;28;20037;-76
2024/01/05 12:58:40;;;;;;;4.53;1.90;;;;;;;;;;5034085;28;20034;-77
2024/01/05 13:01:13;;;;;;;4.25;1.90;;;;;;;;;;5035708;28;20025;-76
2024/01/05 13:03:39;;;;;;;4.55;2.15;;;;;;;;;;5035961;28;20031;-77
2024/01/05 13:06:08;;;;;;;5.03;2.40;;;;;;;;;;5035541;28;20387;-77
2024/01/05 13:08:35;;;;;;;6.00;2.50;;;;;;;;;;5034133;28;20259;-76
2024/01/05 13:11:02;;;;;;;3.70;1.67;;;;;;;;;;5034057;28;20080;-77
2024/01/05 13:13:28;;;;;;;5.40;1.92;;;;;;;;;;5035176;28;20053;-77
2024/01/05 13:15:53;;;;;;;7.57;1.77;;;;;;;;;;5036436;28;20507;-76
2024/01/05 13:18:18;;;;;;;4.93;1.77;;;;;;;;;;5037358;28;20761;-77
2024/01/05 13:20:43;;;;;;;4.13;1.80;;;;;;;;;;5036093;28;20266;-77
2024/01/05 13:23:08;;;;;;;3.97;1.80;;;;;;;;;;5036022;28;20741;-77
2024/01/05 13:25:34;;;;;;;5.87;2.20;;;;;;;;;;5036242;28;20772;-77
2024/01/05 13:27:59;;;;;;;3.97;1.90;;;;;;;;;;5035508;28;20733;-78
2024/01/05 13:30:24;;;;;;;7.27;2.17;;;;;;;;;;5034543;28;20263;-78
2024/01/05 13:32:49;;;;;;;4.00;1.83;;;;;;;;;;5033520;28;20273;-78
2024/01/05 13:35:15;;;;;;;3.53;1.85;;;;;;;;;;5035853;28;20258;-78
2024/01/05 13:37:41;;;;;;;6.97;2.20;;;;;;;;;;5035781;28;20025;-77
2024/01/05 13:40:07;;;;;;;4.53;1.80;;;;;;;;;;5034990;28;20029;-78
2024/01/05 13:42:33;;;;;;;7.78;2.20;;;;;;;;;;5035170;28;20055;-78
2024/01/05 13:45:04;;;;;;;6.25;2.05;;;;;;;;;;5033031;28;20036;-78
2024/01/05 13:47:29;;;;;;;5.65;1.63;;;;;;;;;;5035054;28;20545;-79
2024/01/05 13:49:55;;;;;;;3.63;1.55;;;;;;;;;;5034552;28;20030;-78
2024/01/05 13:52:20;;;;;;;9.38;1.88;;;;;;;;;;5034160;28;20025;-79
2024/01/05 13:54:46;;;;;;;11.13;2.10;;;;;;;;;;5035185;28;20449;-78
2024/01/05 13:57:11;;;;;;;6.18;1.85;;;;;;;;;;5036026;28;20679;-78
2024/01/05 13:59:36;;;;;;;4.05;1.90;;;;;;;;;;5035176;28;20025;-77
2024/01/05 14:02:05;;;;;;;4.15;1.95;;;;;;;;;;5050760;28;20032;-77
2024/01/05 14:04:30;;;;;;;4.43;1.90;;;;;;;;;;5056436;28;20045;-77
2024/01/05 14:06:55;;;;;;;5.25;2.00;;;;;;;;;;5047421;28;20040;-78
2024/01/05 14:09:21;;;;;;;4.72;2.00;;;;;;;;;;5036092;28;20463;-78
2024/01/05 14:11:46;;;;;;;5.80;1.80;;;;;;;;;;5034313;28;20029;-78
2024/01/05 14:14:11;;;;;;;4.10;1.77;;;;;;;;;;5035568;28;20337;-78
2024/01/05 14:16:40;;;;;;;4.70;1.40;;;;;;;;;;5034196;28;20029;-78
2024/01/05 14:19:05;;;;;;;4.75;1.63;;;;;;;;;;5035161;28;20025;-77
2024/01/05 14:21:30;;;;;;;4.13;1.70;;;;;;;;;;5034686;28;20365;-77
2024/01/05 14:23:56;;;;;;;7.20;1.50;;;;;;;;;;5034501;28;20021;-78
2024/01/05 14:26:24;;;;;;;5.00;1.50;;;;;;;;;;5033253;28;20633;-78
2024/01/05 14:28:49;;;;;;;7.00;1.63;;;;;;;;;;5033831;28;20533;-78
2024/01/05 14:31:30;;;;;;;5.25;1.70;;;;;;;;;;5034819;28;20022;-77
2024/01/05 14:33:56;;;;;;;3.63;1.55;;;;;;;;;;5037236;28;20021;-77
2024/01/05 14:36:23;;;;;;;5.53;1.70;;;;;;;;;;5033996;28;20040;-77
2024/01/05 14:38:48;;;;;;;5.72;2.00;;;;;;;;;;5031812;28;20541;-78